createdAt,value
2018-09-08T00:02:23.306Z,15.50
2018-09-08T00:04:57.949Z,15.60
2018-09-08T00:07:37.469Z,15.60
2018-09-08T00:10:12.047Z,15.60
2018-09-08T00:12:46.580Z,15.60
2018-09-08T00:15:26.528Z,15.60
2018-09-08T00:18:06.488Z,15.60
2018-09-08T00:20:46.311Z,15.60
2018-09-08T00:23:26.095Z,15.60
2018-09-08T00:26:05.903Z,15.70
2018-09-08T00:28:44.042Z,15.70
2018-09-08T00:31:20.107Z,15.80
2018-09-08T00:33:54.566Z,15.80
2018-09-08T00:36:29.028Z,15.60
2018-09-08T00:39:03.750Z,15.70
2018-09-08T00:41:38.380Z,15.70
2018-09-08T00:44:13.055Z,15.70
2018-09-08T00:46:47.555Z,15.70
2018-09-08T00:49:22.173Z,15.70
2018-09-08T00:51:56.922Z,15.70
2018-09-08T00:54:31.640Z,15.60
2018-09-08T00:57:06.274Z,15.60
2018-09-08T00:59:41.491Z,15.50
2018-09-08T01:02:15.898Z,15.40
2018-09-08T01:04:50.445Z,15.40
2018-09-08T01:07:30.305Z,15.40
2018-09-08T01:10:04.897Z,15.30
2018-09-08T01:12:39.513Z,15.30
2018-09-08T01:15:14.082Z,15.40
2018-09-08T01:17:48.676Z,15.40
2018-09-08T01:20:23.227Z,15.40
2018-09-08T01:22:57.793Z,15.40
2018-09-08T01:25:32.394Z,15.40
2018-09-08T01:28:07.272Z,15.40
2018-09-08T01:30:41.932Z,14.50
2018-09-08T01:33:16.475Z,13.80
2018-09-08T01:35:51.326Z,14.00
2018-09-08T01:38:26.249Z,14.30
2018-09-08T01:41:00.789Z,14.60
2018-09-08T01:43:35.292Z,14.80
2018-09-08T01:46:09.798Z,14.90
2018-09-08T01:48:44.371Z,14.90
2018-09-08T01:51:19.014Z,14.90
2018-09-08T01:53:53.869Z,15.00
2018-09-08T01:56:28.685Z,15.10
2018-09-08T01:59:03.221Z,15.10
2018-09-08T02:01:37.830Z,15.20
2018-09-08T02:04:12.387Z,15.20
2018-09-08T02:06:46.996Z,15.20
2018-09-08T02:09:21.373Z,15.10
2018-09-08T02:11:55.964Z,15.10
2018-09-08T02:14:30.484Z,15.10
2018-09-08T02:17:05.236Z,15.10
2018-09-08T02:19:39.762Z,15.10
2018-09-08T02:22:14.354Z,15.10
2018-09-08T02:24:48.781Z,14.70
2018-09-08T02:27:23.416Z,14.70
2018-09-08T02:29:57.948Z,14.70
2018-09-08T02:32:32.487Z,14.70
2018-09-08T02:35:07.133Z,14.60
2018-09-08T02:37:41.806Z,14.50
2018-09-08T02:40:16.409Z,14.50
2018-09-08T02:42:51.050Z,14.60
2018-09-08T02:45:25.563Z,14.70
2018-09-08T02:48:00.125Z,14.70
2018-09-08T02:50:38.692Z,14.70
2018-09-08T02:53:13.292Z,14.50
2018-09-08T02:55:46.748Z,14.50
2018-09-08T02:58:20.250Z,14.50
2018-09-08T03:00:53.635Z,14.50
2018-09-08T03:03:27.124Z,14.50
2018-09-08T03:06:00.444Z,14.50
2018-09-08T03:08:33.853Z,14.40
2018-09-08T03:11:07.187Z,14.20
2018-09-08T03:13:40.689Z,14.20
2018-09-08T03:16:14.111Z,14.30
2018-09-08T03:18:47.437Z,14.10
2018-09-08T03:21:20.917Z,14.10
2018-09-08T03:23:54.225Z,14.10
2018-09-08T03:26:27.562Z,14.20
2018-09-08T03:29:01.109Z,14.20
2018-09-08T03:31:34.607Z,14.00
2018-09-08T03:34:08.055Z,14.00
2018-09-08T03:36:41.492Z,14.00
2018-09-08T03:39:15.013Z,14.00
2018-09-08T03:41:48.379Z,13.90
2018-09-08T03:44:21.775Z,14.00
2018-09-08T03:46:55.197Z,14.00
2018-09-08T03:49:28.742Z,13.80
2018-09-08T03:52:02.136Z,13.60
2018-09-08T03:54:35.562Z,13.60
2018-09-08T03:57:08.917Z,13.50
2018-09-08T03:59:42.468Z,13.50
2018-09-08T04:02:15.871Z,13.30
2018-09-08T04:04:50.413Z,13.40
2018-09-08T04:07:25.208Z,13.50
2018-09-08T04:09:59.969Z,13.50
2018-09-08T04:12:34.396Z,13.50
2018-09-08T04:15:09.071Z,13.60
2018-09-08T04:17:43.755Z,13.50
2018-09-08T04:20:18.423Z,13.50
2018-09-08T04:22:53.067Z,13.30
2018-09-08T04:25:27.487Z,13.10
2018-09-08T04:28:02.189Z,13.10
2018-09-08T04:30:36.844Z,13.10
2018-09-08T04:33:11.466Z,13.10
2018-09-08T04:35:45.995Z,12.80
2018-09-08T04:38:20.988Z,12.20
2018-09-08T04:40:55.495Z,12.30
2018-09-08T04:43:30.147Z,12.50
2018-09-08T04:46:04.750Z,12.60
2018-09-08T04:48:39.381Z,12.70
2018-09-08T04:51:13.811Z,12.80
2018-09-08T04:53:48.519Z,12.80
2018-09-08T04:56:23.091Z,13.00
2018-09-08T04:58:57.639Z,13.00
2018-09-08T05:01:32.220Z,13.10
2018-09-08T05:04:06.738Z,13.20
2018-09-08T05:06:41.397Z,13.20
2018-09-08T05:09:15.871Z,13.20
2018-09-08T05:11:50.650Z,13.30
2018-09-08T05:14:25.289Z,13.40
2018-09-08T05:16:59.674Z,13.40
2018-09-08T05:19:34.274Z,13.40
2018-09-08T05:22:08.719Z,13.30
2018-09-08T05:24:43.965Z,13.30
2018-09-08T05:27:18.584Z,13.40
2018-09-08T05:29:53.064Z,13.50
2018-09-08T05:32:27.505Z,13.50
2018-09-08T05:35:02.229Z,13.60
2018-09-08T05:37:36.777Z,13.60
2018-09-08T05:40:11.496Z,13.60
2018-09-08T05:42:46.030Z,13.50
2018-09-08T05:45:20.659Z,13.60
2018-09-08T05:47:55.333Z,13.70
2018-09-08T05:50:30.043Z,13.80
2018-09-08T05:53:04.513Z,13.80
2018-09-08T05:55:39.474Z,13.80
2018-09-08T05:58:14.083Z,13.90
2018-09-08T06:00:48.602Z,13.90
2018-09-08T06:03:23.274Z,13.90
2018-09-08T06:05:57.852Z,13.90
2018-09-08T06:08:32.220Z,13.90
2018-09-08T06:11:07.169Z,13.90
2018-09-08T06:13:41.728Z,14.00
2018-09-08T06:16:16.366Z,14.00
2018-09-08T06:18:50.809Z,14.00
2018-09-08T06:21:25.242Z,14.10
2018-09-08T06:23:59.574Z,14.10
2018-09-08T06:26:34.133Z,14.20
2018-09-08T06:29:08.484Z,14.10
2018-09-08T06:31:43.015Z,14.10
2018-09-08T06:34:17.469Z,14.30
2018-09-08T06:36:51.958Z,14.30
2018-09-08T06:39:26.362Z,14.30
2018-09-08T06:42:00.694Z,14.30
2018-09-08T06:44:35.122Z,14.40
2018-09-08T06:47:09.430Z,14.30
2018-09-08T06:49:43.903Z,14.30
2018-09-08T06:52:18.357Z,14.10
2018-09-08T06:54:52.816Z,14.10
2018-09-08T06:57:27.301Z,14.30
2018-09-08T07:00:01.708Z,14.20
2018-09-08T07:02:36.073Z,14.30
2018-09-08T07:05:10.421Z,14.40
2018-09-08T07:07:44.869Z,14.40
2018-09-08T07:10:19.364Z,14.50
2018-09-08T07:12:53.904Z,14.50
2018-09-08T07:15:28.263Z,14.60
2018-09-08T07:18:02.688Z,14.70
2018-09-08T07:20:37.024Z,14.80
2018-09-08T07:23:12.114Z,14.90
2018-09-08T07:25:46.533Z,14.90
2018-09-08T07:28:21.088Z,15.10
2018-09-08T07:30:55.753Z,15.20
2018-09-08T07:33:30.585Z,15.30
2018-09-08T07:36:05.032Z,15.40
2018-09-08T07:38:39.355Z,15.40
2018-09-08T07:41:13.786Z,15.50
2018-09-08T07:43:48.326Z,15.40
2018-09-08T07:46:22.807Z,15.30
2018-09-08T07:48:57.151Z,15.30
2018-09-08T07:51:31.481Z,15.40
2018-09-08T07:54:05.928Z,15.50
2018-09-08T07:56:40.229Z,15.50
2018-09-08T07:59:14.614Z,15.50
2018-09-08T08:01:49.171Z,15.60
2018-09-08T08:04:23.622Z,15.70
2018-09-08T08:06:58.292Z,15.80
2018-09-08T08:09:32.857Z,16.00
2018-09-08T08:12:07.277Z,16.10
2018-09-08T08:14:41.636Z,16.30
2018-09-08T08:17:15.956Z,16.40
2018-09-08T08:19:50.366Z,16.50
2018-09-08T08:22:24.807Z,16.50
2018-09-08T08:24:59.124Z,16.50
2018-09-08T08:27:33.457Z,16.70
2018-09-08T08:30:07.964Z,16.90
2018-09-08T08:32:42.359Z,16.90
2018-09-08T08:35:16.758Z,17.10
2018-09-08T08:37:51.751Z,17.30
2018-09-08T08:40:26.076Z,17.30
2018-09-08T08:43:00.387Z,17.60
2018-09-08T08:45:34.769Z,17.70
2018-09-08T08:48:09.237Z,17.60
2018-09-08T08:50:55.084Z,17.50
2018-09-08T08:53:41.051Z,17.70
2018-09-08T08:56:15.414Z,17.80
2018-09-08T08:58:49.706Z,17.50
2018-09-08T09:01:24.125Z,17.70
2018-09-08T09:03:58.555Z,17.80
2018-09-08T09:06:32.892Z,17.80
2018-09-08T09:09:10.436Z,18.00
2018-09-08T09:11:45.274Z,18.10
2018-09-08T09:14:19.710Z,18.10
2018-09-08T09:16:54.258Z,18.30
2018-09-08T09:19:42.022Z,18.50
2018-09-08T09:22:28.738Z,18.60
2018-09-08T09:25:06.844Z,18.50
2018-09-08T09:27:42.796Z,18.50
2018-09-08T09:30:17.935Z,18.50
2018-09-08T09:32:52.415Z,18.40
2018-09-08T09:35:26.812Z,18.30
2018-09-08T09:38:01.092Z,18.30
2018-09-08T09:40:35.528Z,18.50
2018-09-08T09:43:09.914Z,18.80
2018-09-08T09:45:45.182Z,19.20
2018-09-08T09:48:22.689Z,19.40
2018-09-08T09:50:57.153Z,19.40
2018-09-08T09:53:31.564Z,19.30
2018-09-08T09:56:05.825Z,19.20
2018-09-08T09:58:40.284Z,19.20
2018-09-08T10:01:19.063Z,19.20
2018-09-08T10:03:53.579Z,19.10
2018-09-08T10:06:28.116Z,19.20
2018-09-08T10:09:02.635Z,18.90
2018-09-08T10:11:37.060Z,19.00
2018-09-08T10:14:11.404Z,18.90
2018-09-08T10:16:45.864Z,18.80
2018-09-08T10:19:20.182Z,19.00
2018-09-08T10:21:54.648Z,19.10
2018-09-08T10:24:29.017Z,19.10
2018-09-08T10:27:03.636Z,19.10
2018-09-08T10:29:38.064Z,19.30
2018-09-08T10:32:12.642Z,19.40
2018-09-08T10:34:46.679Z,19.60
2018-09-08T10:37:21.116Z,19.50
2018-09-08T10:39:55.559Z,19.60
2018-09-08T10:42:29.919Z,19.70
2018-09-08T10:45:04.578Z,19.70
2018-09-08T10:47:39.130Z,20.10
2018-09-08T10:50:13.635Z,20.30
2018-09-08T10:52:48.701Z,20.10
2018-09-08T10:55:23.212Z,19.90
2018-09-08T10:57:57.662Z,20.00
2018-09-08T11:00:32.171Z,19.90
2018-09-08T11:03:07.033Z,20.00
2018-09-08T11:05:41.965Z,20.00
2018-09-08T11:08:16.630Z,20.00
2018-09-08T11:10:51.259Z,20.10
2018-09-08T11:13:26.135Z,20.20
2018-09-08T11:16:00.670Z,20.00
2018-09-08T11:18:35.475Z,19.80
2018-09-08T11:21:10.126Z,19.90
2018-09-08T11:23:44.956Z,19.90
2018-09-08T11:26:19.578Z,20.00
2018-09-08T11:28:54.259Z,20.00
2018-09-08T11:31:28.968Z,20.10
2018-09-08T11:34:03.312Z,20.60
2018-09-08T11:36:37.735Z,20.80
2018-09-08T11:39:12.071Z,21.20
2018-09-08T11:41:46.893Z,21.40
2018-09-08T11:44:21.220Z,21.30
2018-09-08T11:46:55.567Z,21.10
2018-09-08T11:49:30.086Z,21.30
2018-09-08T11:52:04.397Z,21.10
2018-09-08T11:54:38.753Z,21.00
2018-09-08T11:57:13.159Z,21.30
2018-09-08T11:59:47.459Z,21.30
2018-09-08T12:02:21.891Z,21.60
2018-09-08T12:04:57.225Z,21.90
2018-09-08T12:07:31.529Z,22.10
2018-09-08T12:10:05.886Z,21.80
2018-09-08T12:12:40.307Z,21.80
2018-09-08T12:15:14.780Z,21.70
2018-09-08T12:17:49.088Z,21.70
2018-09-08T12:20:23.333Z,21.50
2018-09-08T12:22:57.618Z,21.40
2018-09-08T12:25:32.049Z,21.50
2018-09-08T12:28:06.558Z,21.60
2018-09-08T12:30:41.207Z,21.40
2018-09-08T12:33:15.522Z,21.00
2018-09-08T12:35:49.870Z,20.50
2018-09-08T12:38:24.251Z,20.60
2018-09-08T12:40:58.566Z,20.90
2018-09-08T12:43:33.058Z,20.90
2018-09-08T12:46:07.740Z,21.10
2018-09-08T12:48:42.296Z,21.20
2018-09-08T12:51:17.063Z,21.40
2018-09-08T12:53:51.663Z,21.40
2018-09-08T12:56:26.388Z,21.80
2018-09-08T12:59:00.987Z,21.80
2018-09-08T13:01:35.719Z,21.80
2018-09-08T13:04:10.585Z,21.60
2018-09-08T13:06:45.318Z,21.50
2018-09-08T13:09:20.099Z,21.30
2018-09-08T13:11:54.886Z,21.30
2018-09-08T13:14:29.455Z,21.20
2018-09-08T13:17:05.319Z,21.30
2018-09-08T13:19:40.284Z,21.30
2018-09-08T13:22:14.990Z,21.40
2018-09-08T13:24:49.892Z,21.50
2018-09-08T13:27:24.509Z,21.70
2018-09-08T13:29:59.215Z,21.70
2018-09-08T13:32:33.894Z,21.80
2018-09-08T13:35:09.645Z,22.10
2018-09-08T13:37:44.274Z,22.20
2018-09-08T13:40:18.878Z,22.10
2018-09-08T13:42:53.486Z,22.10
2018-09-08T13:45:28.295Z,22.10
2018-09-08T13:48:02.939Z,22.00
2018-09-08T13:50:37.630Z,22.20
2018-09-08T13:53:12.448Z,22.60
2018-09-08T13:55:47.141Z,22.30
2018-09-08T13:58:21.833Z,22.00
2018-09-08T14:00:56.454Z,22.00
2018-09-08T14:03:30.993Z,22.30
2018-09-08T14:06:05.717Z,22.40
2018-09-08T14:08:40.392Z,22.40
2018-09-08T14:11:14.946Z,22.40
2018-09-08T14:13:49.412Z,22.50
2018-09-08T14:16:24.104Z,22.40
2018-09-08T14:18:58.713Z,22.00
2018-09-08T14:21:33.583Z,22.00
2018-09-08T14:24:08.377Z,21.90
2018-09-08T14:26:43.028Z,21.90
2018-09-08T14:29:17.793Z,21.80
2018-09-08T14:31:52.497Z,21.60
2018-09-08T14:34:27.209Z,21.60
2018-09-08T14:37:01.723Z,21.40
2018-09-08T14:39:36.346Z,21.10
2018-09-08T14:42:11.066Z,21.30
2018-09-08T14:44:45.797Z,21.40
2018-09-08T14:47:20.535Z,21.60
2018-09-08T14:49:55.176Z,21.40
2018-09-08T14:52:29.954Z,21.50
2018-09-08T14:55:04.928Z,21.50
2018-09-08T14:57:39.683Z,21.60
2018-09-08T15:00:14.221Z,21.40
2018-09-08T15:02:48.720Z,21.40
2018-09-08T15:05:23.371Z,21.90
2018-09-08T15:07:57.968Z,22.10
2018-09-08T15:10:32.770Z,22.10
2018-09-08T15:13:07.561Z,22.20
2018-09-08T15:15:42.304Z,22.40
2018-09-08T15:18:17.062Z,22.40
2018-09-08T15:20:51.796Z,22.20
2018-09-08T15:23:26.480Z,22.20
2018-09-08T15:26:01.205Z,22.30
2018-09-08T15:28:35.999Z,22.30
2018-09-08T15:31:11.992Z,22.20
2018-09-08T15:33:46.764Z,22.00
2018-09-08T15:36:21.460Z,21.60
2018-09-08T15:38:56.200Z,21.80
2018-09-08T15:41:30.785Z,21.60
2018-09-08T15:44:05.497Z,21.50
2018-09-08T15:46:40.385Z,21.70
2018-09-08T15:49:15.021Z,21.80
2018-09-08T15:51:49.737Z,21.30
2018-09-08T15:54:24.432Z,21.30
2018-09-08T15:56:59.247Z,21.30
2018-09-08T15:59:34.026Z,21.30
2018-09-08T16:02:08.673Z,21.20
2018-09-08T16:04:43.433Z,21.10
2018-09-08T16:07:18.141Z,21.20
2018-09-08T16:09:52.783Z,21.10
2018-09-08T16:12:28.288Z,21.10
2018-09-08T16:15:02.886Z,21.10
2018-09-08T16:17:37.471Z,21.20
2018-09-08T16:20:12.076Z,21.40
2018-09-08T16:22:46.935Z,21.20
2018-09-08T16:25:21.681Z,21.30
2018-09-08T16:27:56.367Z,21.40
2018-09-08T16:30:30.945Z,21.20
2018-09-08T16:33:05.584Z,21.20
2018-09-08T16:35:40.222Z,21.20
2018-09-08T16:38:14.944Z,21.50
2018-09-08T16:40:49.526Z,21.70
2018-09-08T16:43:24.153Z,21.90
2018-09-08T16:45:58.821Z,22.00
2018-09-08T16:48:33.610Z,22.00
2018-09-08T16:51:08.172Z,21.90
2018-09-08T16:53:43.027Z,21.60
2018-09-08T16:56:17.880Z,21.90
2018-09-08T16:58:52.442Z,22.00
2018-09-08T17:01:27.178Z,22.40
2018-09-08T17:04:01.934Z,22.40
2018-09-08T17:06:36.700Z,22.70
2018-09-08T17:09:11.462Z,22.90
2018-09-08T17:11:46.111Z,22.90
2018-09-08T17:14:20.857Z,22.90
2018-09-08T17:16:55.528Z,22.90
2018-09-08T17:19:30.266Z,22.90
2018-09-08T17:22:05.001Z,22.90
2018-09-08T17:24:39.758Z,22.80
2018-09-08T17:27:14.321Z,22.70
2018-09-08T17:29:49.128Z,22.50
2018-09-08T17:32:23.973Z,22.20
2018-09-08T17:34:58.627Z,22.00
2018-09-08T17:37:33.268Z,21.90
2018-09-08T17:40:08.415Z,21.80
2018-09-08T17:42:43.630Z,21.60
2018-09-08T17:45:18.647Z,21.40
2018-09-08T17:47:56.151Z,21.30
2018-09-08T17:50:39.605Z,21.10
2018-09-08T17:53:19.020Z,20.90
2018-09-08T17:59:33.594Z,20.30
2018-09-08T18:02:08.835Z,20.10
2018-09-08T18:04:45.094Z,20.00
2018-09-08T18:07:24.222Z,20.00
2018-09-08T18:09:58.810Z,19.90
2018-09-08T18:12:33.281Z,19.70
2018-09-08T18:15:08.591Z,19.60
2018-09-08T18:17:43.196Z,19.60
2018-09-08T18:20:17.673Z,19.50
2018-09-08T18:22:52.281Z,19.30
2018-09-08T18:25:26.847Z,19.20
2018-09-08T18:28:01.430Z,19.00
2018-09-08T18:30:35.870Z,19.00
2018-09-08T18:33:10.373Z,18.80
2018-09-08T18:35:45.052Z,18.70
2018-09-08T18:38:19.683Z,18.80
2018-09-08T18:40:54.291Z,18.70
2018-09-08T18:43:28.960Z,18.70
2018-09-08T18:46:03.691Z,18.50
2018-09-08T18:48:38.377Z,17.70
2018-09-08T18:51:13.006Z,17.60
2018-09-08T18:53:47.523Z,17.70
2018-09-08T18:56:22.121Z,17.60
2018-09-08T18:58:56.903Z,17.70
2018-09-08T19:01:31.594Z,17.60
2018-09-08T19:04:06.104Z,17.60
2018-09-08T19:06:40.793Z,17.70
2018-09-08T19:09:15.370Z,17.50
2018-09-08T19:11:49.850Z,17.60
2018-09-08T19:14:29.812Z,17.60
2018-09-08T19:17:04.492Z,17.40
2018-09-08T19:19:38.858Z,17.40
2018-09-08T19:22:13.354Z,17.40
2018-09-08T19:24:47.811Z,17.40
2018-09-08T19:27:22.296Z,17.30
2018-09-08T19:30:01.552Z,17.30
2018-09-08T19:32:36.149Z,17.40
2018-09-08T19:35:16.047Z,17.30
2018-09-08T19:37:50.664Z,17.30
2018-09-08T19:40:30.512Z,17.10
2018-09-08T19:43:05.239Z,17.00
2018-09-08T19:45:39.826Z,16.90
2018-09-08T19:48:18.712Z,16.60
2018-09-08T19:50:53.038Z,16.60
2018-09-08T19:53:32.797Z,16.60
2018-09-08T19:56:07.308Z,16.60
2018-09-08T19:58:47.252Z,16.40
2018-09-08T20:01:21.739Z,16.40
2018-09-08T20:03:56.662Z,16.30
2018-09-08T20:06:31.062Z,16.40
2018-09-08T20:09:06.324Z,16.50
2018-09-08T20:11:40.792Z,16.40
2018-09-08T20:14:15.244Z,16.20
2018-09-08T20:16:49.572Z,16.30
2018-09-08T20:19:23.914Z,16.30
2018-09-08T20:21:58.355Z,16.30
2018-09-08T20:24:32.695Z,16.40
2018-09-08T20:27:07.233Z,16.20
2018-09-08T20:29:41.780Z,16.20
2018-09-08T20:32:16.268Z,16.10
2018-09-08T20:34:50.699Z,16.10
2018-09-08T20:37:25.160Z,16.10
2018-09-08T20:39:59.669Z,16.10
2018-09-08T20:42:34.278Z,16.00
2018-09-08T20:45:08.694Z,15.60
2018-09-08T20:47:43.043Z,15.50
2018-09-08T20:50:17.397Z,15.60
2018-09-08T20:52:51.754Z,15.70
2018-09-08T20:55:26.318Z,15.70
2018-09-08T20:58:00.811Z,15.50
2018-09-08T21:00:35.141Z,15.50
2018-09-08T21:03:09.558Z,15.60
2018-09-08T21:05:43.939Z,15.60
2018-09-08T21:08:18.402Z,15.60
2018-09-08T21:10:52.916Z,15.40
2018-09-08T21:13:27.484Z,15.20
2018-09-08T21:16:02.444Z,14.90
2018-09-08T21:18:36.993Z,14.50
2018-09-08T21:21:11.421Z,14.60
2018-09-08T21:23:46.020Z,14.70
2018-09-08T21:26:20.663Z,14.70
2018-09-08T21:28:55.257Z,14.80
2018-09-08T21:31:29.716Z,14.90
2018-09-08T21:34:04.067Z,14.80
2018-09-08T21:36:38.403Z,14.80
2018-09-08T21:39:12.912Z,14.70
2018-09-08T21:41:47.478Z,14.80
2018-09-08T21:44:21.784Z,14.80
2018-09-08T21:46:56.106Z,14.70
2018-09-08T21:49:30.508Z,14.80
2018-09-08T21:52:04.891Z,14.80
2018-09-08T21:54:39.266Z,14.70
2018-09-08T21:57:13.760Z,14.70
2018-09-08T21:59:48.172Z,14.80
2018-09-08T22:02:22.623Z,14.70
2018-09-08T22:04:57.171Z,14.60
2018-09-08T22:07:31.721Z,14.50
2018-09-08T22:10:06.099Z,14.50
2018-09-08T22:12:40.575Z,14.40
2018-09-08T22:15:15.096Z,14.30
2018-09-08T22:17:49.631Z,14.20
2018-09-08T22:20:24.056Z,13.70
2018-09-08T22:22:58.596Z,13.50
2018-09-08T22:25:33.212Z,13.60
2018-09-08T22:28:07.598Z,13.80
2018-09-08T22:30:41.936Z,13.90
2018-09-08T22:33:16.716Z,14.00
2018-09-08T22:35:51.195Z,13.90
2018-09-08T22:38:25.722Z,14.00
2018-09-08T22:41:00.106Z,14.00
2018-09-08T22:43:34.580Z,13.80
2018-09-08T22:46:09.025Z,13.80
2018-09-08T22:48:43.585Z,13.90
2018-09-08T22:51:18.034Z,13.80
2018-09-08T22:53:52.494Z,13.90
2018-09-08T22:56:26.809Z,14.00
2018-09-08T22:59:01.164Z,14.00
2018-09-08T23:01:35.681Z,13.80
2018-09-08T23:04:10.024Z,13.90
2018-09-08T23:06:44.308Z,13.90
2018-09-08T23:09:18.952Z,13.80
2018-09-08T23:11:53.335Z,13.60
2018-09-08T23:14:27.725Z,13.10
2018-09-08T23:17:02.071Z,12.70
2018-09-08T23:19:36.479Z,12.70
2018-09-08T23:22:10.865Z,12.50
2018-09-08T23:24:45.244Z,12.60
2018-09-08T23:27:19.772Z,12.80
2018-09-08T23:29:54.312Z,12.90
2018-09-08T23:32:28.584Z,12.80
2018-09-08T23:35:03.040Z,12.60
2018-09-08T23:37:37.451Z,12.70
2018-09-08T23:40:12.031Z,12.80
2018-09-08T23:42:46.562Z,13.00
2018-09-08T23:45:21.088Z,13.00
2018-09-08T23:47:55.543Z,13.10
2018-09-08T23:50:30.133Z,13.10
2018-09-08T23:53:04.478Z,13.10
2018-09-08T23:55:39.031Z,13.00
2018-09-08T23:58:13.459Z,12.80
